Home > Products > Valid Products > MTR

000
SAUS45 KPIH 141852
MTRSNT
METAR KSNT 141851Z AUTO 08005KT 01/M01 A3018 RMK AO1 SLP206 P0001
T00111011





000
SAUS45 KPIH 141752
MTRSNT
METAR KSNT 141751Z AUTO 00000KT 00/M02 A3018 RMK AO1 SLP204 P0001
60005 T00001022 10006 21022 51011





000
SAUS45 KPIH 141752
MTRSNT
METAR KSNT 141751Z AUTO 00000KT 00/M02 A3018 RMK AO1 SLP204 P0001
60005 T00001022 10006 21022 51011





000
SAUS45 KPIH 141652
MTRSNT
METAR KSNT 141651Z AUTO 00000KT M01/M03 A3017 RMK AO1 SLP201 P0002
T10061028





000
SAUS45 KPIH 141552
MTRSNT
METAR KSNT 141551Z AUTO 00000KT M01/M02 A3016 RMK AO1 SLP202 P0001
T10061022





000
SAUS45 KPIH 141452
MTRSNT
METAR KSNT 141451Z AUTO 00000KT M02/M04 A3014 RMK AO1 SLP197 P0001
60001 T10221039 53002





000
SAUS45 KPIH 141352
MTRSNT
METAR KSNT 141351Z AUTO 00000KT M02/M04 A3013 RMK AO1 SLP201
T10221039





000
SAUS45 KPIH 141252
MTRSNT
METAR KSNT 141251Z AUTO 25003KT M02/M04 A3012 RMK AO1 SLP187
T10171039





000
SAUS45 KPIH 141252
MTRSNT
METAR KSNT 141251Z AUTO 25003KT M02/M04 A3012 RMK AO1 SLP187
T10171039





000
SAUS45 KPIH 141152
MTRSNT
METAR KSNT 141151Z AUTO 00000KT M02/M04 A3013 RMK AO1 SLP187 60006
70007 T10221039 10000 21028 56004





000
SAUS45 KPIH 141152
MTRSNT
METAR KSNT 141151Z AUTO 00000KT M02/M04 A3013 RMK AO1 SLP187 60006
70007 T10221039 10000 21028 56004





000
SAUS45 KPIH 141052
MTRSNT
METAR KSNT 141051Z AUTO 00000KT M02/M04 A3014 RMK AO1 SLP186
T10171039





000
SAUS45 KPIH 141052
MTRSNT
METAR KSNT 141051Z AUTO 00000KT M02/M04 A3014 RMK AO1 SLP186
T10171039





000
SAUS45 KPIH 140952
MTRSNT
METAR KSNT 140951Z AUTO 10005KT M03/M04 A3014 RMK AO1 SLP187 P0001
T10281044





000
SAUS45 KPIH 140852
MTRSNT
METAR KSNT 140851Z AUTO 00000KT M02/M04 A3014 RMK AO1 SLP189 P0002
60005 T10221044 58007





000
SAUS45 KPIH 140852
MTRSNT
METAR KSNT 140851Z AUTO 00000KT M02/M04 A3014 RMK AO1 SLP189 P0002
60005 T10221044 58007





000
SAUS45 KPIH 140752
MTRSNT
METAR KSNT 140751Z AUTO 31004KT M02/M04 A3017 RMK AO1 SLP196 P0002
T10221044





000
SAUS45 KPIH 140654 COR
MTRSNT
METAR KSNT 140651Z AUTO 14006KT M02/M06 A3016 RMK AO1 SLP194 P0001
T10171056 400781039





000
SAUS45 KPIH 140552
MTRSNT
METAR KSNT 140551Z AUTO 18010KT 00/M08 A3017 RMK AO1 SLP195
T00001078 10022 21039 58012





000
SAUS45 KPIH 140452
MTRSNT
METAR KSNT 140451Z AUTO 18015G21KT 00/M09 A3019 RMK AO1 SLP202
T00001089





000
SAUS45 KPIH 140452
MTRSNT
METAR KSNT 140451Z AUTO 18015G21KT 00/M09 A3019 RMK AO1 SLP202
T00001089





000
SAUS45 KPIH 140352
MTRSNT
METAR KSNT 140351Z AUTO 09003KT M02/M11 A3022 RMK AO1 SLP219
T10171106





000
SAUS45 KPIH 140252
MTRSNT
METAR KSNT 140251Z AUTO 00000KT M02/M11 A3021 RMK AO1 SLP213
T10171111 55003





000
SAUS45 KPIH 140152
MTRSNT
METAR KSNT 140151Z AUTO 00000KT M03/M12 A3020 RMK AO1 SLP210
T10331117





000
SAUS45 KPIH 140152
MTRSNT
METAR KSNT 140151Z AUTO 00000KT M03/M12 A3020 RMK AO1 SLP210
T10331117





000
SAUS45 KPIH 140052
MTRSNT
METAR KSNT 140051Z AUTO 00000KT 00/M12 A3020 RMK AO1 SLP198
T00001117





000
SAUS45 KPIH 140052
MTRSNT
METAR KSNT 140051Z AUTO 00000KT 00/M12 A3020 RMK AO1 SLP198
T00001117





000
SAUS45 KPIH 132352
MTRSNT
METAR KSNT 132351Z AUTO 05005KT 02/M11 A3022 RMK AO1 SLP200
T00221111 10039 20011 53006





000
SAUS45 KPIH 132352
MTRSNT
METAR KSNT 132351Z AUTO 05005KT 02/M11 A3022 RMK AO1 SLP200
T00221111 10039 20011 53006





000
SAUS45 KPIH 132252
MTRSNT
METAR KSNT 132251Z AUTO 33006KT 03/M12 A3021 RMK AO1 SLP189
T00281117





000
SAUS45 KPIH 132152
MTRSNT
METAR KSNT 132151Z AUTO 02007KT 03/M10 A3020 RMK AO1 SLP192
T00331100





000
SAUS45 KPIH 132052
MTRSNT
METAR KSNT 132051Z AUTO 34007KT 03/M11 A3020 RMK AO1 SLP198
T00331106 58009





000
SAUS45 KPIH 131952
MTRSNT
METAR KSNT 131951Z AUTO VRB05KT 03/M11 A3021 RMK AO1 SLP207
T00331106





000
SAUS45 KPIH 131952
MTRSNT
METAR KSNT 131951Z AUTO VRB05KT 03/M11 A3021 RMK AO1 SLP207
T00331106





000
SAUS45 KPIH 131852
MTRSNT
METAR KSNT 131851Z AUTO 29009G17KT 250V320 02/M10 A3023 RMK AO1
SLP215 T00221100





000
SAUS45 KPIH 131852
MTRSNT
METAR KSNT 131851Z AUTO 29009G17KT 250V320 02/M10 A3023 RMK AO1
SLP215 T00221100





000
SAUS45 KPIH 131752
MTRSNT
METAR KSNT 131751Z AUTO 30009KT 02/M08 A3023 RMK AO1 SLP212 60001
T00171078 10061 20017 51016





000
SAUS45 KPIH 131752
MTRSNT
METAR KSNT 131751Z AUTO 30009KT 02/M08 A3023 RMK AO1 SLP212 60001
T00171078 10061 20017 51016





000
SAUS45 KPIH 131652
MTRSNT
METAR KSNT 131651Z AUTO 31009G25KT 02/M08 A3021 RMK AO1 SLP200
T00171083





000
SAUS45 KPIH 131552
MTRSNT
METAR KSNT 131551Z AUTO 29007G16KT 250V320 02/M09 A3020 RMK AO1
SLP195 T00171089





000
SAUS45 KPIH 131452
MTRSNT
METAR KSNT 131451Z AUTO 25011G20KT 03/M08 A3018 RMK AO1 PK WND
28029/1409 SLP187 60001 T00281078 53014





000
SAUS45 KPIH 131352
MTRSNT
METAR KSNT 131351Z AUTO 04/M05 A3016 RMK AO1 SLP176 P0001 T00391050





000
SAUS45 KPIH 131252
MTRSNT
METAR KSNT 131251Z AUTO VRB03KT 05/M03 A3013 RMK AO1 SLP166
T00501033





000
SAUS45 KPIH 131252
MTRSNT
METAR KSNT 131251Z AUTO VRB03KT 05/M03 A3013 RMK AO1 SLP166
T00501033





000
SAUS45 KPIH 131152
MTRSNT
METAR KSNT 131151Z AUTO 16003KT 05/M03 A3013 RMK AO1 SLP150
T00501033 10078 21006 56006





000
SAUS45 KPIH 131052
MTRSNT
METAR KSNT 131051Z AUTO VRB05KT 07/M03 A3013 RMK AO1 SLP146
T00671033





000
SAUS45 KPIH 130954 COR
MTRSNT
METAR KSNT 130951Z AUTO 17006KT 04/M03 A3014 RMK AO1 SLP159
T00391028





000
SAUS45 KPIH 130852
MTRSNT
METAR KSNT 130851Z AUTO 00000KT 02/M03 A3015 RMK AO1 SLP183
T00171028 56011





000
SAUS45 KPIH 130752
MTRSNT
METAR KSNT 130751Z AUTO 00000KT 00/M03 A3016 RMK AO1 SLP195
T00001033





000
SAUS45 KPIH 130652
MTRSNT
METAR KSNT 130651Z AUTO 00000KT 01/M03 A3017 RMK AO1 SLP207
T00061028 401001089





000
SAUS45 KPIH 130652
MTRSNT
METAR KSNT 130651Z AUTO 00000KT 01/M03 A3017 RMK AO1 SLP207
T00061028 401001089





000
SAUS45 KPIH 130552
MTRSNT
METAR KSNT 130551Z AUTO 00000KT 02/M02 A3019 RMK AO1 SLP204
T00221017 10089 20022 55007





000
SAUS45 KPIH 130552
MTRSNT
METAR KSNT 130551Z AUTO 00000KT 02/M02 A3019 RMK AO1 SLP204
T00221017 10089 20022 55007





000
SAUS45 KPIH 130452
MTRSNT
METAR KSNT 130451Z AUTO VRB03KT 04/M02 A3018 RMK AO1 SLP196
T00441017





000
SAUS45 KPIH 130352
MTRSNT
METAR KSNT 130351Z AUTO 11005KT 05/M02 A3020 RMK AO1 SLP213
T00501017





000
SAUS45 KPIH 130252
MTRSNT
METAR KSNT 130251Z AUTO 14007KT 03/M01 A3021 RMK AO1 SLP225
T00331011 58006





000
SAUS45 KPIH 130252
MTRSNT
METAR KSNT 130251Z AUTO 14007KT 03/M01 A3021 RMK AO1 SLP225
T00331011 58006





000
SAUS45 KPIH 130152
MTRSNT
METAR KSNT 130151Z AUTO 17006KT 04/M01 A3022 RMK AO1 SLP226
T00441011





000
SAUS45 KPIH 130052
MTRSNT
METAR KSNT 130051Z AUTO 15004KT 04/M01 A3024 RMK AO1 SLP233
T00391011





000
SAUS45 KPIH 130052
MTRSNT
METAR KSNT 130051Z AUTO 15004KT 04/M01 A3024 RMK AO1 SLP233
T00391011





000
SAUS45 KPIH 122352
MTRSNT
METAR KSNT 122351Z AUTO 00000KT 09/M02 A3024 RMK AO1 SLP219
T00891017 10100 21044 55007





000
SAUS45 KPIH 122352
MTRSNT
METAR KSNT 122351Z AUTO 00000KT 09/M02 A3024 RMK AO1 SLP219
T00891017 10100 21044 55007





000
SAUS45 KPIH 122252
MTRSNT
METAR KSNT 122251Z AUTO 03003KT 09/M02 A3023 RMK AO1 SLP214
T00941022





000
SAUS45 KPIH 122152
MTRSNT
METAR KSNT 122151Z AUTO VRB04KT 08/M03 A3023 RMK AO1 SLP213
T00831028





000
SAUS45 KPIH 122052
MTRSNT
METAR KSNT 122051Z AUTO 00000KT 03/M04 A3026 RMK AO1 SLP239
T00281039 57022





000
SAUS45 KPIH 121952
MTRSNT
METAR KSNT 121951Z AUTO 00000KT 01/M04 A3028 RMK AO1 SLP248
T00111044





000
SAUS45 KPIH 121852
MTRSNT
METAR KSNT 121851Z AUTO 00000KT M03/M06 A3032 RMK AO1 SLP266
T10281056





000
SAUS45 KPIH 121752
MTRSNT
METAR KSNT 121751Z AUTO 00000KT M01/M06 A3034 RMK AO1 SLP269
T10111061 11006 21083 58003





000
SAUS45 KPIH 121752
MTRSNT
METAR KSNT 121751Z AUTO 00000KT M01/M06 A3034 RMK AO1 SLP269
T10111061 11006 21083 58003





000
SAUS45 KPIH 121652
MTRSNT
METAR KSNT 121651Z AUTO 00000KT M02/M06 A3035 RMK AO1 SLP272
T10171061





000
SAUS45 KPIH 121652
MTRSNT
METAR KSNT 121651Z AUTO 00000KT M02/M06 A3035 RMK AO1 SLP272
T10171061





000
SAUS45 KPIH 121552
MTRSNT
METAR KSNT 121551Z AUTO 00000KT M06/M10 A3036 RMK AO1 SLP282
T10561100





000
SAUS45 KPIH 121552
MTRSNT
METAR KSNT 121551Z AUTO 00000KT M06/M10 A3036 RMK AO1 SLP282
T10561100





000
SAUS45 KPIH 121452
MTRSNT
METAR KSNT 121451Z AUTO 00000KT M07/M10 A3035 RMK AO1 SLP271
T10671100 51005





000
SAUS45 KPIH 121352
MTRSNT
METAR KSNT 121351Z AUTO 00000KT M07/M09 A3035 RMK AO1 SLP273
T10671094





000
SAUS45 KPIH 121352
MTRSNT
METAR KSNT 121351Z AUTO 00000KT M07/M09 A3035 RMK AO1 SLP273
T10671094





000
SAUS45 KPIH 121252
MTRSNT
METAR KSNT 121251Z AUTO 00000KT M07/M10 A3034 RMK AO1 SLP269
T10721100





000
SAUS45 KPIH 121152
MTRSNT
METAR KSNT 121151Z AUTO 09007KT M07/M09 A3033 RMK AO1 SLP261
T10721094 11011 21089 58001





000
SAUS45 KPIH 121152
MTRSNT
METAR KSNT 121151Z AUTO 09007KT M07/M09 A3033 RMK AO1 SLP261
T10721094 11011 21089 58001





000
SAUS45 KPIH 121052
MTRSNT
METAR KSNT 121051Z AUTO 00000KT M07/M09 A3034 RMK AO1 SLP267
T10671094





000
SAUS45 KPIH 120952
MTRSNT
METAR KSNT 120951Z AUTO 14003KT M05/M07 A3033 RMK AO1 SLP256
T10501072





000
SAUS45 KPIH 120852
MTRSNT
METAR KSNT 120851Z AUTO 13003KT M05/M07 A3033 RMK AO1 SLP267
T10501072 55003





000
SAUS45 KPIH 120852
MTRSNT
METAR KSNT 120851Z AUTO 13003KT M05/M07 A3033 RMK AO1 SLP267
T10501072 55003





000
SAUS45 KPIH 120752
MTRSNT
METAR KSNT 120751Z AUTO 00000KT M04/M06 A3033 RMK AO1 SLP265
T10441061





000
SAUS45 KPIH 120652
MTRSNT
METAR KSNT 120651Z AUTO 10003KT M02/M04 A3034 RMK AO1 SLP274
T10221039 400611122





000
SAUS45 KPIH 120652
MTRSNT
METAR KSNT 120651Z AUTO 10003KT M02/M04 A3034 RMK AO1 SLP274
T10221039 400611122





000
SAUS45 KPIH 120552
MTRSNT
METAR KSNT 120551Z AUTO 00000KT M02/M05 A3034 RMK AO1 SLP283
T10221050 10056 21028 53002





000
SAUS45 KPIH 120552
MTRSNT
METAR KSNT 120551Z AUTO 00000KT M02/M05 A3034 RMK AO1 SLP283
T10221050 10056 21028 53002





000
SAUS45 KPIH 120452
MTRSNT
METAR KSNT 120451Z AUTO 00000KT M01/M03 A3033 RMK AO1 SLP274
T10061028





000
SAUS45 KPIH 120352
MTRSNT
METAR KSNT 120351Z AUTO 00000KT M01/M04 A3033 RMK AO1 SLP286
T10061039





000
SAUS45 KPIH 120352
MTRSNT
METAR KSNT 120351Z AUTO 00000KT M01/M04 A3033 RMK AO1 SLP286
T10061039





000
SAUS45 KPIH 120252
MTRSNT
METAR KSNT 120251Z AUTO 20004KT 04/M03 A3033 RMK AO1 SLP276
T00391028 50002





000
SAUS45 KPIH 120252
MTRSNT
METAR KSNT 120251Z AUTO 20004KT 04/M03 A3033 RMK AO1 SLP276
T00391028 50002





000
SAUS45 KPIH 120152
MTRSNT
METAR KSNT 120151Z AUTO 00000KT 03/M02 A3035 RMK AO1 SLP286
T00331022





000
SAUS45 KPIH 120152
MTRSNT
METAR KSNT 120151Z AUTO 00000KT 03/M02 A3035 RMK AO1 SLP286
T00331022





000
SAUS45 KPIH 120052
MTRSNT
METAR KSNT 120051Z AUTO 00000KT 04/M03 A3033 RMK AO1 SLP276
T00391033





000
SAUS45 KPIH 120052
MTRSNT
METAR KSNT 120051Z AUTO 00000KT 04/M03 A3033 RMK AO1 SLP276
T00391033





000
SAUS45 KPIH 112352
MTRSNT
METAR KSNT 112351Z AUTO 00000KT 06/M06 A3033 RMK AO1 SLP265
T00561056 10061 21061 55003





000
SAUS45 KPIH 112252
MTRSNT
METAR KSNT 112251Z AUTO 00000KT 04/M06 A3032 RMK AO1 SLP261
T00441061





000
SAUS45 KPIH 112152
MTRSNT
METAR KSNT 112151Z AUTO 00000KT 06/M07 A3032 RMK AO1 SLP260
T00611067





000
SAUS45 KPIH 112052
MTRSNT
METAR KSNT 112051Z AUTO 00000KT 02/M07 A3034 RMK AO1 SLP278
T00171067 58017





000
SAUS45 KPIH 111952
MTRSNT
METAR KSNT 111951Z AUTO 00000KT 01/M07 A3037 RMK AO1 SLP285
T00061072





    US Dept of Commerce
    National Oceanic and Atmospheric Administration
    National Weather Service
    1325 East West Highway
    Silver Spring, MD 20910
    Page Author: NWS Internet Services Team
Disclaimer
Information Quality
Credits
Glossary
Privacy Policy
Freedom of Information Act (FOIA)
About Us
Career Opportunities